sensor_id;sensor_type;location;lat;lon;timestamp;pressure;altitude;pressure_sealevel;temperature;humidity
10006;BME280;5042;42.626;23.382;2023-05-03T00:01:29;94746.75;;;12.34;58.70
10006;BME280;5042;42.626;23.382;2023-05-03T00:03:58;94758.03;;;12.27;58.86
10006;BME280;5042;42.626;23.382;2023-05-03T00:06:24;94756.22;;;12.28;59.12
10006;BME280;5042;42.626;23.382;2023-05-03T00:08:51;94751.09;;;12.20;59.32
10006;BME280;5042;42.626;23.382;2023-05-03T00:11:18;94759.16;;;12.18;59.74
10006;BME280;5042;42.626;23.382;2023-05-03T00:13:45;94746.66;;;12.20;59.69
10006;BME280;5042;42.626;23.382;2023-05-03T00:16:12;94749.91;;;12.22;59.16
10006;BME280;5042;42.626;23.382;2023-05-03T00:18:38;94745.78;;;12.13;59.15
10006;BME280;5042;42.626;23.382;2023-05-03T00:21:07;94770.06;;;12.15;59.10
10006;BME280;5042;42.626;23.382;2023-05-03T00:23:33;94754.81;;;12.04;60.25
10006;BME280;5042;42.626;23.382;2023-05-03T00:26:00;94757.81;;;12.01;60.56
10006;BME280;5042;42.626;23.382;2023-05-03T00:28:27;94759.44;;;12.02;60.52
10006;BME280;5042;42.626;23.382;2023-05-03T00:30:54;94759.50;;;12.08;60.65
10006;BME280;5042;42.626;23.382;2023-05-03T00:33:21;94766.44;;;12.16;59.88
10006;BME280;5042;42.626;23.382;2023-05-03T00:35:47;94748.91;;;12.02;59.92
10006;BME280;5042;42.626;23.382;2023-05-03T00:38:16;94764.13;;;12.06;59.05
10006;BME280;5042;42.626;23.382;2023-05-03T00:40:42;94759.00;;;11.98;59.22
10006;BME280;5042;42.626;23.382;2023-05-03T00:43:10;94775.41;;;11.85;59.50
10006;BME280;5042;42.626;23.382;2023-05-03T00:45:37;94753.91;;;11.75;59.68
10006;BME280;5042;42.626;23.382;2023-05-03T00:48:04;94748.19;;;11.72;59.49
10006;BME280;5042;42.626;23.382;2023-05-03T00:50:31;94756.28;;;11.70;60.03
10006;BME280;5042;42.626;23.382;2023-05-03T00:52:58;94759.16;;;11.75;60.19
10006;BME280;5042;42.626;23.382;2023-05-03T00:55:28;94760.97;;;11.75;60.00
10006;BME280;5042;42.626;23.382;2023-05-03T00:57:56;94760.97;;;11.75;60.05
10006;BME280;5042;42.626;23.382;2023-05-03T01:00:23;94741.88;;;11.66;60.51
10006;BME280;5042;42.626;23.382;2023-05-03T01:02:50;94753.38;;;11.65;59.97
10006;BME280;5042;42.626;23.382;2023-05-03T01:05:18;94744.25;;;11.61;59.61
10006;BME280;5042;42.626;23.382;2023-05-03T01:07:55;94736.25;;;11.48;60.53
10006;BME280;5042;42.626;23.382;2023-05-03T01:10:32;94718.72;;;11.33;62.04
10006;BME280;5042;42.626;23.382;2023-05-03T01:13:08;94737.81;;;11.42;62.30
10006;BME280;5042;42.626;23.382;2023-05-03T01:15:45;94730.34;;;11.45;62.14
10006;BME280;5042;42.626;23.382;2023-05-03T01:18:19;94710.75;;;11.41;61.90
10006;BME280;5042;42.626;23.382;2023-05-03T01:20:48;94706.59;;;11.32;62.42
10006;BME280;5042;42.626;23.382;2023-05-03T01:23:26;94707.16;;;11.28;63.25
10006;BME280;5042;42.626;23.382;2023-05-03T01:25:55;94716.00;;;11.27;64.54
10006;BME280;5042;42.626;23.382;2023-05-03T01:28:22;94710.28;;;11.38;63.21
10006;BME280;5042;42.626;23.382;2023-05-03T01:30:51;94709.88;;;11.34;63.80
10006;BME280;5042;42.626;23.382;2023-05-03T01:33:25;94708.97;;;11.27;63.82
10006;BME280;5042;42.626;23.382;2023-05-03T01:35:59;94708.69;;;11.22;64.24
10006;BME280;5042;42.626;23.382;2023-05-03T01:38:29;94712.72;;;11.18;65.25
10006;BME280;5042;42.626;23.382;2023-05-03T01:41:01;94705.25;;;11.21;64.63
10006;BME280;5042;42.626;23.382;2023-05-03T01:43:33;94693.22;;;11.27;64.93
10006;BME280;5042;42.626;23.382;2023-05-03T01:46:01;94686.41;;;11.33;64.12
10006;BME280;5042;42.626;23.382;2023-05-03T01:48:28;94698.94;;;11.16;64.61
10006;BME280;5042;42.626;23.382;2023-05-03T01:50:55;94692.56;;;11.03;64.70
10006;BME280;5042;42.626;23.382;2023-05-03T01:53:21;94690.50;;;10.99;65.78
10006;BME280;5042;42.626;23.382;2023-05-03T01:55:48;94685.88;;;11.01;65.34
10006;BME280;5042;42.626;23.382;2023-05-03T01:58:16;94686.31;;;11.04;65.47
10006;BME280;5042;42.626;23.382;2023-05-03T02:00:44;94683.94;;;11.10;65.76
10006;BME280;5042;42.626;23.382;2023-05-03T02:03:10;94670.19;;;11.08;65.99
10006;BME280;5042;42.626;23.382;2023-05-03T02:05:37;94661.50;;;11.07;65.74
10006;BME280;5042;42.626;23.382;2023-05-03T02:08:04;94656.81;;;11.02;65.79
10006;BME280;5042;42.626;23.382;2023-05-03T02:10:31;94652.81;;;11.07;66.37
10006;BME280;5042;42.626;23.382;2023-05-03T02:12:57;94667.13;;;11.04;67.37
10006;BME280;5042;42.626;23.382;2023-05-03T02:15:26;94666.59;;;10.94;66.64
10006;BME280;5042;42.626;23.382;2023-05-03T02:17:52;94660.75;;;10.92;67.85
10006;BME280;5042;42.626;23.382;2023-05-03T02:20:19;94670.06;;;10.94;67.41
10006;BME280;5042;42.626;23.382;2023-05-03T02:22:46;94666.16;;;10.90;67.51
10006;BME280;5042;42.626;23.382;2023-05-03T02:25:13;94670.59;;;10.90;67.83
10006;BME280;5042;42.626;23.382;2023-05-03T02:27:40;94672.25;;;10.76;69.06
10006;BME280;5042;42.626;23.382;2023-05-03T02:30:07;94678.03;;;10.71;69.52
10006;BME280;5042;42.626;23.382;2023-05-03T02:32:35;94666.38;;;10.74;69.47
10006;BME280;5042;42.626;23.382;2023-05-03T02:35:02;94659.56;;;10.79;69.54
10006;BME280;5042;42.626;23.382;2023-05-03T02:37:29;94662.28;;;10.86;70.17
10006;BME280;5042;42.626;23.382;2023-05-03T02:39:56;94668.66;;;10.98;68.55
10006;BME280;5042;42.626;23.382;2023-05-03T02:42:23;94669.16;;;10.87;69.67
10006;BME280;5042;42.626;23.382;2023-05-03T02:44:49;94669.50;;;10.84;70.28
10006;BME280;5042;42.626;23.382;2023-05-03T02:47:16;94657.84;;;10.87;70.55
10006;BME280;5042;42.626;23.382;2023-05-03T02:49:44;94652.41;;;10.88;70.68
10006;BME280;5042;42.626;23.382;2023-05-03T02:52:12;94656.69;;;10.89;69.79
10006;BME280;5042;42.626;23.382;2023-05-03T02:54:39;94639.81;;;10.98;70.15
10006;BME280;5042;42.626;23.382;2023-05-03T02:57:06;94648.81;;;10.89;70.66
10006;BME280;5042;42.626;23.382;2023-05-03T02:59:32;94658.03;;;10.85;70.08
10006;BME280;5042;42.626;23.382;2023-05-03T03:01:59;94648.34;;;10.86;70.48
10006;BME280;5042;42.626;23.382;2023-05-03T03:04:26;94658.13;;;10.77;70.51
10006;BME280;5042;42.626;23.382;2023-05-03T03:06:54;94641.63;;;10.61;71.72
10006;BME280;5042;42.626;23.382;2023-05-03T03:09:21;94660.50;;;10.72;72.18
10006;BME280;5042;42.626;23.382;2023-05-03T03:11:50;94646.09;;;10.68;72.50
10006;BME280;5042;42.626;23.382;2023-05-03T03:14:17;94659.50;;;10.73;73.08
10006;BME280;5042;42.626;23.382;2023-05-03T03:16:44;94658.75;;;10.79;73.45
10006;BME280;5042;42.626;23.382;2023-05-03T03:19:11;94656.78;;;10.81;73.15
10006;BME280;5042;42.626;23.382;2023-05-03T03:21:38;94650.81;;;10.87;73.13
10006;BME280;5042;42.626;23.382;2023-05-03T03:24:07;94657.09;;;10.93;73.75
10006;BME280;5042;42.626;23.382;2023-05-03T03:26:34;94671.31;;;10.83;71.67
10006;BME280;5042;42.626;23.382;2023-05-03T03:29:01;94668.19;;;10.58;71.91
10006;BME280;5042;42.626;23.382;2023-05-03T03:31:27;94678.75;;;10.65;73.12
10006;BME280;5042;42.626;23.382;2023-05-03T03:33:54;94682.94;;;10.59;72.76
10006;BME280;5042;42.626;23.382;2023-05-03T03:36:21;94688.44;;;10.65;74.22
10006;BME280;5042;42.626;23.382;2023-05-03T03:38:48;94694.94;;;10.69;72.47
10006;BME280;5042;42.626;23.382;2023-05-03T03:41:16;94706.41;;;10.68;71.67
10006;BME280;5042;42.626;23.382;2023-05-03T03:43:43;94709.78;;;10.61;72.82
10006;BME280;5042;42.626;23.382;2023-05-03T03:46:09;94688.25;;;10.66;73.33
10006;BME280;5042;42.626;23.382;2023-05-03T03:48:36;94700.19;;;10.69;72.16
10006;BME280;5042;42.626;23.382;2023-05-03T03:51:03;94708.13;;;10.60;72.80
10006;BME280;5042;42.626;23.382;2023-05-03T03:53:30;94711.84;;;10.66;72.73
10006;BME280;5042;42.626;23.382;2023-05-03T03:55:56;94712.59;;;10.75;72.34
10006;BME280;5042;42.626;23.382;2023-05-03T03:58:24;94712.03;;;10.65;71.63
10006;BME280;5042;42.626;23.382;2023-05-03T04:00:51;94713.31;;;10.69;71.83
10006;BME280;5042;42.626;23.382;2023-05-03T04:03:18;94721.00;;;10.70;72.19
10006;BME280;5042;42.626;23.382;2023-05-03T04:05:45;94730.00;;;10.68;72.28
10006;BME280;5042;42.626;23.382;2023-05-03T04:08:12;94729.84;;;10.69;72.53
10006;BME280;5042;42.626;23.382;2023-05-03T04:10:38;94725.94;;;10.65;73.27
10006;BME280;5042;42.626;23.382;2023-05-03T04:13:05;94728.03;;;10.70;73.16
10006;BME280;5042;42.626;23.382;2023-05-03T04:15:34;94749.84;;;10.70;73.06
10006;BME280;5042;42.626;23.382;2023-05-03T04:18:01;94735.72;;;10.71;75.65
10006;BME280;5042;42.626;23.382;2023-05-03T04:20:27;94750.00;;;10.83;73.69
10006;BME280;5042;42.626;23.382;2023-05-03T04:22:54;94736.72;;;10.85;75.04
10006;BME280;5042;42.626;23.382;2023-05-03T04:25:21;94740.94;;;10.86;75.11
10006;BME280;5042;42.626;23.382;2023-05-03T04:27:48;94751.44;;;10.86;74.06
10006;BME280;5042;42.626;23.382;2023-05-03T04:30:15;94761.28;;;10.84;73.70
10006;BME280;5042;42.626;23.382;2023-05-03T04:32:44;94757.06;;;10.83;74.21
10006;BME280;5042;42.626;23.382;2023-05-03T04:35:11;94764.13;;;10.82;75.04
10006;BME280;5042;42.626;23.382;2023-05-03T04:37:39;94585.09;;;9.70;73.68
10006;BME280;5042;42.626;23.382;2023-05-03T04:40:06;94770.28;;;10.90;72.72
10006;BME280;5042;42.626;23.382;2023-05-03T04:42:34;94760.66;;;10.67;73.82
10006;BME280;5042;42.626;23.382;2023-05-03T04:45:01;94759.03;;;10.51;75.19
10006;BME280;5042;42.626;23.382;2023-05-03T04:47:28;94774.25;;;10.56;76.91
10006;BME280;5042;42.626;23.382;2023-05-03T04:49:56;94775.38;;;10.53;77.84
10006;BME280;5042;42.626;23.382;2023-05-03T04:52:23;94765.00;;;10.45;79.34
10006;BME280;5042;42.626;23.382;2023-05-03T04:54:51;94770.13;;;10.53;80.92
10006;BME280;5042;42.626;23.382;2023-05-03T04:57:18;94790.03;;;10.63;83.57
10006;BME280;5042;42.626;23.382;2023-05-03T04:59:45;94788.31;;;10.40;91.20
10006;BME280;5042;42.626;23.382;2023-05-03T05:02:12;94783.06;;;10.40;100.00
10006;BME280;5042;42.626;23.382;2023-05-03T05:04:39;94792.53;;;10.41;94.57
10006;BME280;5042;42.626;23.382;2023-05-03T05:07:07;94789.47;;;10.37;100.00
10006;BME280;5042;42.626;23.382;2023-05-03T05:09:33;94799.69;;;10.32;100.00
10006;BME280;5042;42.626;23.382;2023-05-03T05:12:00;94795.47;;;10.23;100.00
10006;BME280;5042;42.626;23.382;2023-05-03T05:14:29;94793.44;;;10.33;100.00
10006;BME280;5042;42.626;23.382;2023-05-03T05:16:56;94792.91;;;10.38;100.00
10006;BME280;5042;42.626;23.382;2023-05-03T05:19:23;94803.75;;;10.35;100.00
10006;BME280;5042;42.626;23.382;2023-05-03T05:21:50;94804.78;;;10.26;100.00
10006;BME280;5042;42.626;23.382;2023-05-03T05:24:18;94804.75;;;10.11;100.00
10006;BME280;5042;42.626;23.382;2023-05-03T05:26:45;94815.16;;;10.19;100.00
10006;BME280;5042;42.626;23.382;2023-05-03T05:29:11;94813.84;;;10.15;100.00
10006;BME280;5042;42.626;23.382;2023-05-03T05:31:38;94818.97;;;10.08;100.00
10006;BME280;5042;42.626;23.382;2023-05-03T05:34:05;94819.28;;;10.13;100.00
10006;BME280;5042;42.626;23.382;2023-05-03T05:36:32;94747.53;;;9.76;100.00
10006;BME280;5042;42.626;23.382;2023-05-03T05:38:59;94808.63;;;10.38;100.00
10006;BME280;5042;42.626;23.382;2023-05-03T05:41:27;94810.09;;;10.55;98.65
10006;BME280;5042;42.626;23.382;2023-05-03T05:43:53;94810.09;;;10.55;100.00
10006;BME280;5042;42.626;23.382;2023-05-03T05:46:20;94816.72;;;10.66;99.79
10006;BME280;5042;42.626;23.382;2023-05-03T05:48:47;94810.56;;;10.59;100.00
10006;BME280;5042;42.626;23.382;2023-05-03T05:51:15;94816.91;;;10.65;97.30
10006;BME280;5042;42.626;23.382;2023-05-03T05:53:42;94810.59;;;10.74;99.54
10006;BME280;5042;42.626;23.382;2023-05-03T05:56:08;94815.66;;;10.75;100.00
10006;BME280;5042;42.626;23.382;2023-05-03T05:58:37;94809.41;;;10.61;94.74
10006;BME280;5042;42.626;23.382;2023-05-03T06:01:03;94806.34;;;10.73;97.86
10006;BME280;5042;42.626;23.382;2023-05-03T06:03:32;94790.25;;;10.76;95.07
10006;BME280;5042;42.626;23.382;2023-05-03T06:05:59;94807.91;;;10.97;92.13
10006;BME280;5042;42.626;23.382;2023-05-03T06:08:25;94809.41;;;10.91;92.83
10006;BME280;5042;42.626;23.382;2023-05-03T06:10:52;94806.19;;;10.89;94.70
10006;BME280;5042;42.626;23.382;2023-05-03T06:13:20;94803.34;;;10.91;91.52
10006;BME280;5042;42.626;23.382;2023-05-03T06:15:48;94803.94;;;11.01;91.63
10006;BME280;5042;42.626;23.382;2023-05-03T06:18:15;94805.97;;;11.06;91.51
10006;BME280;5042;42.626;23.382;2023-05-03T06:20:42;94802.91;;;11.17;91.28
10006;BME280;5042;42.626;23.382;2023-05-03T06:23:09;94804.25;;;11.28;93.20
10006;BME280;5042;42.626;23.382;2023-05-03T06:25:35;94806.69;;;11.29;90.76
10006;BME280;5042;42.626;23.382;2023-05-03T06:28:02;94809.13;;;11.31;98.04
10006;BME280;5042;42.626;23.382;2023-05-03T06:30:29;94805.25;;;11.27;95.13
10006;BME280;5042;42.626;23.382;2023-05-03T06:32:57;94801.81;;;11.26;96.09
10006;BME280;5042;42.626;23.382;2023-05-03T06:35:24;94803.34;;;11.35;97.21
10006;BME280;5042;42.626;23.382;2023-05-03T06:37:51;94798.09;;;11.35;99.34
10006;BME280;5042;42.626;23.382;2023-05-03T06:40:18;94791.09;;;11.42;99.13
10006;BME280;5042;42.626;23.382;2023-05-03T06:42:44;94778.63;;;11.44;94.12
10006;BME280;5042;42.626;23.382;2023-05-03T06:45:11;94778.31;;;11.54;93.79
10006;BME280;5042;42.626;23.382;2023-05-03T06:47:38;94766.19;;;11.53;96.11
10006;BME280;5042;42.626;23.382;2023-05-03T06:50:09;94765.63;;;11.58;93.16
10006;BME280;5042;42.626;23.382;2023-05-03T06:52:36;94767.09;;;11.60;93.21
10006;BME280;5042;42.626;23.382;2023-05-03T06:55:03;94777.44;;;11.47;96.40
10006;BME280;5042;42.626;23.382;2023-05-03T06:57:30;94763.84;;;11.43;97.02
10006;BME280;5042;42.626;23.382;2023-05-03T06:59:57;94747.13;;;11.44;95.13
10006;BME280;5042;42.626;23.382;2023-05-03T07:02:24;94758.75;;;11.57;95.33
10006;BME280;5042;42.626;23.382;2023-05-03T07:04:51;94771.94;;;11.42;95.06
10006;BME280;5042;42.626;23.382;2023-05-03T07:07:19;94760.78;;;11.40;95.65
10006;BME280;5042;42.626;23.382;2023-05-03T07:09:46;94769.94;;;11.44;96.19
10006;BME280;5042;42.626;23.382;2023-05-03T07:12:13;94773.47;;;11.36;96.50
10006;BME280;5042;42.626;23.382;2023-05-03T07:14:41;94768.22;;;11.36;97.84
10006;BME280;5042;42.626;23.382;2023-05-03T07:17:08;94760.97;;;11.38;99.90
10006;BME280;5042;42.626;23.382;2023-05-03T07:19:34;94758.94;;;11.55;100.00
10006;BME280;5042;42.626;23.382;2023-05-03T07:22:02;94757.69;;;11.51;99.42
10006;BME280;5042;42.626;23.382;2023-05-03T07:24:30;94759.22;;;11.45;100.00
10006;BME280;5042;42.626;23.382;2023-05-03T07:26:57;94760.88;;;11.46;100.00
10006;BME280;5042;42.626;23.382;2023-05-03T07:29:23;94718.03;;;11.10;100.00
10006;BME280;5042;42.626;23.382;2023-05-03T07:31:50;94760.44;;;11.28;100.00
10006;BME280;5042;42.626;23.382;2023-05-03T07:34:17;94752.34;;;11.08;100.00
10006;BME280;5042;42.626;23.382;2023-05-03T07:36:44;94753.88;;;11.02;100.00
10006;BME280;5042;42.626;23.382;2023-05-03T07:39:10;94754.13;;;11.08;100.00
10006;BME280;5042;42.626;23.382;2023-05-03T07:41:38;94759.31;;;11.16;100.00
10006;BME280;5042;42.626;23.382;2023-05-03T07:44:05;94759.56;;;10.91;100.00
10006;BME280;5042;42.626;23.382;2023-05-03T07:46:32;94752.25;;;11.01;100.00
10006;BME280;5042;42.626;23.382;2023-05-03T07:48:59;94700.09;;;10.92;100.00
10006;BME280;5042;42.626;23.382;2023-05-03T07:51:26;94644.88;;;10.64;100.00
10006;BME280;5042;42.626;23.382;2023-05-03T07:53:54;94734.16;;;11.07;100.00
10006;BME280;5042;42.626;23.382;2023-05-03T07:56:22;94758.03;;;11.12;100.00
10006;BME280;5042;42.626;23.382;2023-05-03T07:58:50;94761.47;;;11.12;100.00
10006;BME280;5042;42.626;23.382;2023-05-03T08:01:17;94757.78;;;11.07;100.00
10006;BME280;5042;42.626;23.382;2023-05-03T08:03:43;94748.09;;;10.92;100.00
10006;BME280;5042;42.626;23.382;2023-05-03T08:06:10;94749.78;;;11.15;100.00
10006;BME280;5042;42.626;23.382;2023-05-03T08:08:37;94752.75;;;11.41;100.00
10006;BME280;5042;42.626;23.382;2023-05-03T08:11:04;94743.81;;;11.57;100.00
10006;BME280;5042;42.626;23.382;2023-05-03T08:13:31;94744.38;;;11.89;100.00
10006;BME280;5042;42.626;23.382;2023-05-03T08:15:59;94743.41;;;12.46;100.00
10006;BME280;5042;42.626;23.382;2023-05-03T08:18:26;94746.88;;;12.82;100.00
10006;BME280;5042;42.626;23.382;2023-05-03T08:20:52;94747.94;;;12.94;100.00
10006;BME280;5042;42.626;23.382;2023-05-03T08:23:19;94742.91;;;12.99;100.00
10006;BME280;5042;42.626;23.382;2023-05-03T08:25:46;94735.19;;;13.32;99.74
10006;BME280;5042;42.626;23.382;2023-05-03T08:28:13;94745.56;;;13.41;98.80
10006;BME280;5042;42.626;23.382;2023-05-03T08:30:40;94748.69;;;13.23;98.82
10006;BME280;5042;42.626;23.382;2023-05-03T08:33:08;94752.31;;;13.70;100.00
10006;BME280;5042;42.626;23.382;2023-05-03T08:35:35;94753.63;;;14.67;100.00
10006;BME280;5042;42.626;23.382;2023-05-03T08:38:02;94753.09;;;15.17;86.28
10006;BME280;5042;42.626;23.382;2023-05-03T08:40:29;94755.31;;;15.26;92.26
10006;BME280;5042;42.626;23.382;2023-05-03T08:43:06;94748.38;;;15.32;83.33
10006;BME280;5042;42.626;23.382;2023-05-03T08:45:33;94743.81;;;15.98;85.62
10006;BME280;5042;42.626;23.382;2023-05-03T08:48:00;94744.03;;;16.21;75.09
10006;BME280;5042;42.626;23.382;2023-05-03T08:50:30;94752.44;;;15.80;81.39
10006;BME280;5042;42.626;23.382;2023-05-03T08:53:01;94761.31;;;15.92;78.44
10006;BME280;5042;42.626;23.382;2023-05-03T08:55:28;94756.63;;;14.97;81.79
10006;BME280;5042;42.626;23.382;2023-05-03T08:57:55;94764.47;;;15.17;86.69
10006;BME280;5042;42.626;23.382;2023-05-03T09:00:26;94749.56;;;14.65;85.21
10006;BME280;5042;42.626;23.382;2023-05-03T09:02:53;94757.81;;;15.01;88.67
10006;BME280;5042;42.626;23.382;2023-05-03T09:05:32;94776.28;;;15.08;87.97
10006;BME280;5042;42.626;23.382;2023-05-03T09:08:00;94719.09;;;14.35;86.34
10006;BME280;5042;42.626;23.382;2023-05-03T09:10:28;94754.38;;;15.01;90.31
10006;BME280;5042;42.626;23.382;2023-05-03T09:12:57;94747.50;;;14.73;90.08
10006;BME280;5042;42.626;23.382;2023-05-03T09:15:24;94742.22;;;14.93;91.09
10006;BME280;5042;42.626;23.382;2023-05-03T09:18:09;94740.53;;;15.12;88.09
10006;BME280;5042;42.626;23.382;2023-05-03T09:20:38;94733.03;;;15.54;93.47
10006;BME280;5042;42.626;23.382;2023-05-03T09:23:06;94735.94;;;15.84;86.27
10006;BME280;5042;42.626;23.382;2023-05-03T09:25:41;94731.97;;;16.00;81.53
10006;BME280;5042;42.626;23.382;2023-05-03T09:28:08;94735.78;;;15.79;84.81
10006;BME280;5042;42.626;23.382;2023-05-03T09:30:34;94725.25;;;16.29;90.08
10006;BME280;5042;42.626;23.382;2023-05-03T09:33:02;94692.47;;;16.74;80.47
10006;BME280;5042;42.626;23.382;2023-05-03T09:35:29;94721.75;;;17.34;73.08
10006;BME280;5042;42.626;23.382;2023-05-03T09:37:58;94709.50;;;17.70;80.30
10006;BME280;5042;42.626;23.382;2023-05-03T09:40:25;94708.78;;;17.93;70.45
10006;BME280;5042;42.626;23.382;2023-05-03T09:43:05;94715.16;;;17.74;70.79
10006;BME280;5042;42.626;23.382;2023-05-03T09:45:32;94714.19;;;17.38;69.77
10006;BME280;5042;42.626;23.382;2023-05-03T09:48:01;94711.31;;;17.88;72.30
10006;BME280;5042;42.626;23.382;2023-05-03T09:50:30;94708.75;;;18.23;69.02
10006;BME280;5042;42.626;23.382;2023-05-03T09:53:00;94706.59;;;18.68;66.65
10006;BME280;5042;42.626;23.382;2023-05-03T09:55:30;94704.88;;;19.66;64.84
10006;BME280;5042;42.626;23.382;2023-05-03T09:57:58;94696.72;;;20.13;64.49
10006;BME280;5042;42.626;23.382;2023-05-03T10:00:25;94699.38;;;20.13;58.95
10006;BME280;5042;42.626;23.382;2023-05-03T10:02:56;94691.03;;;19.64;61.76
10006;BME280;5042;42.626;23.382;2023-05-03T10:05:27;94708.88;;;18.40;62.93
10006;BME280;5042;42.626;23.382;2023-05-03T10:07:59;94704.34;;;17.27;67.82
10006;BME280;5042;42.626;23.382;2023-05-03T10:10:27;94703.72;;;16.94;70.19
10006;BME280;5042;42.626;23.382;2023-05-03T10:12:56;94703.84;;;17.00;74.32
10006;BME280;5042;42.626;23.382;2023-05-03T10:15:25;94699.88;;;17.09;75.73
10006;BME280;5042;42.626;23.382;2023-05-03T10:17:56;94680.34;;;17.40;73.74
10006;BME280;5042;42.626;23.382;2023-05-03T10:20:27;94675.72;;;16.99;75.74
10006;BME280;5042;42.626;23.382;2023-05-03T10:23:13;94676.78;;;16.98;75.90
10006;BME280;5042;42.626;23.382;2023-05-03T10:26:12;94668.84;;;16.72;77.46
10006;BME280;5042;42.626;23.382;2023-05-03T10:28:39;94665.84;;;16.69;80.07
10006;BME280;5042;42.626;23.382;2023-05-03T10:31:44;94663.00;;;16.70;77.51
10006;BME280;5042;42.626;23.382;2023-05-03T10:34:22;94655.88;;;16.71;80.17
10006;BME280;5042;42.626;23.382;2023-05-03T10:36:50;94657.63;;;17.14;80.18
10006;BME280;5042;42.626;23.382;2023-05-03T10:39:20;94659.53;;;17.55;79.72
10006;BME280;5042;42.626;23.382;2023-05-03T10:41:57;94660.34;;;17.86;73.80
10006;BME280;5042;42.626;23.382;2023-05-03T10:44:25;94657.59;;;17.93;70.51
10006;BME280;5042;42.626;23.382;2023-05-03T10:46:52;94660.22;;;17.93;72.19
10006;BME280;5042;42.626;23.382;2023-05-03T10:49:21;94634.81;;;17.73;69.37
10006;BME280;5042;42.626;23.382;2023-05-03T10:51:48;94678.13;;;17.97;70.87
10006;BME280;5042;42.626;23.382;2023-05-03T10:54:15;94675.50;;;17.79;68.92
10006;BME280;5042;42.626;23.382;2023-05-03T10:56:49;94656.03;;;17.43;68.92
10006;BME280;5042;42.626;23.382;2023-05-03T10:59:16;94649.53;;;17.39;69.70
10006;BME280;5042;42.626;23.382;2023-05-03T11:01:44;94678.94;;;17.79;71.01
10006;BME280;5042;42.626;23.382;2023-05-03T11:04:14;94672.78;;;17.86;69.78
10006;BME280;5042;42.626;23.382;2023-05-03T11:06:46;94657.94;;;17.85;71.68
10006;BME280;5042;42.626;23.382;2023-05-03T11:09:16;94653.09;;;18.05;69.00
10006;BME280;5042;42.626;23.382;2023-05-03T11:11:43;94661.13;;;17.87;68.44
10006;BME280;5042;42.626;23.382;2023-05-03T11:14:11;94662.22;;;17.67;71.24
10006;BME280;5042;42.626;23.382;2023-05-03T11:16:39;94663.34;;;17.59;71.47
10006;BME280;5042;42.626;23.382;2023-05-03T11:19:12;94663.00;;;17.56;71.42
10006;BME280;5042;42.626;23.382;2023-05-03T11:21:39;94648.25;;;17.60;72.98
10006;BME280;5042;42.626;23.382;2023-05-03T11:24:07;94647.13;;;17.68;75.08
10006;BME280;5042;42.626;23.382;2023-05-03T11:26:35;94592.66;;;17.42;73.97
10006;BME280;5042;42.626;23.382;2023-05-03T11:29:02;94642.03;;;17.96;75.50
10006;BME280;5042;42.626;23.382;2023-05-03T11:31:30;94635.81;;;18.61;79.56
10006;BME280;5042;42.626;23.382;2023-05-03T11:33:58;94645.16;;;19.28;69.06
10006;BME280;5042;42.626;23.382;2023-05-03T11:36:25;94638.81;;;19.58;67.94
10006;BME280;5042;42.626;23.382;2023-05-03T11:38:52;94645.88;;;19.52;67.97
10006;BME280;5042;42.626;23.382;2023-05-03T11:41:19;94648.56;;;19.40;65.41
10006;BME280;5042;42.626;23.382;2023-05-03T11:43:47;94640.47;;;19.06;67.27
10006;BME280;5042;42.626;23.382;2023-05-03T11:46:16;94624.81;;;19.22;67.33
10006;BME280;5042;42.626;23.382;2023-05-03T11:48:45;94625.06;;;18.56;67.16
10006;BME280;5042;42.626;23.382;2023-05-03T11:51:11;94603.84;;;18.56;68.59
10006;BME280;5042;42.626;23.382;2023-05-03T11:53:39;94608.81;;;19.05;74.33
10006;BME280;5042;42.626;23.382;2023-05-03T11:56:10;94574.63;;;19.37;68.27
10006;BME280;5042;42.626;23.382;2023-05-03T11:58:49;94604.03;;;19.76;64.69
10006;BME280;5042;42.626;23.382;2023-05-03T12:01:17;94590.75;;;19.47;64.12
10006;BME280;5042;42.626;23.382;2023-05-03T12:03:45;94599.28;;;19.49;67.46
10006;BME280;5042;42.626;23.382;2023-05-03T12:06:15;94601.66;;;19.63;67.22
10006;BME280;5042;42.626;23.382;2023-05-03T12:08:42;94614.16;;;19.34;67.75
10006;BME280;5042;42.626;23.382;2023-05-03T12:11:09;94621.16;;;18.82;68.36
10006;BME280;5042;42.626;23.382;2023-05-03T12:13:37;94611.91;;;18.85;71.75
10006;BME280;5042;42.626;23.382;2023-05-03T12:16:05;94615.38;;;18.38;70.18
10006;BME280;5042;42.626;23.382;2023-05-03T12:18:50;94612.78;;;17.73;72.53
10006;BME280;5042;42.626;23.382;2023-05-03T12:21:18;94607.13;;;17.69;74.97
10006;BME280;5042;42.626;23.382;2023-05-03T12:23:46;94611.13;;;17.60;77.09
10006;BME280;5042;42.626;23.382;2023-05-03T12:26:15;94613.28;;;17.09;78.29
10006;BME280;5042;42.626;23.382;2023-05-03T12:28:43;94622.31;;;16.28;82.73
10006;BME280;5042;42.626;23.382;2023-05-03T12:31:09;94612.50;;;15.85;88.44
10006;BME280;5042;42.626;23.382;2023-05-03T12:33:36;94604.66;;;15.78;92.59
10006;BME280;5042;42.626;23.382;2023-05-03T12:36:05;94611.03;;;15.89;94.51
10006;BME280;5042;42.626;23.382;2023-05-03T12:38:33;94610.88;;;15.84;95.57
10006;BME280;5042;42.626;23.382;2023-05-03T12:41:00;94610.66;;;15.54;95.91
10006;BME280;5042;42.626;23.382;2023-05-03T12:43:27;94615.31;;;15.58;97.35
10006;BME280;5042;42.626;23.382;2023-05-03T12:45:53;94609.78;;;15.66;98.75
10006;BME280;5042;42.626;23.382;2023-05-03T12:48:23;94613.81;;;15.76;96.94
10006;BME280;5042;42.626;23.382;2023-05-03T12:50:50;94611.97;;;15.76;97.49
10006;BME280;5042;42.626;23.382;2023-05-03T12:53:20;94608.53;;;15.76;97.94
10006;BME280;5042;42.626;23.382;2023-05-03T12:55:47;94615.91;;;15.60;100.00
10006;BME280;5042;42.626;23.382;2023-05-03T12:58:14;94604.84;;;15.45;100.00
10006;BME280;5042;42.626;23.382;2023-05-03T13:00:40;94604.16;;;15.24;100.00
10006;BME280;5042;42.626;23.382;2023-05-03T13:03:07;94609.75;;;15.03;100.00